createdAt,value
2022-11-12T00:00:43.523Z,18.7
2022-11-12T00:01:45.266Z,18.7
2022-11-12T00:02:47.685Z,18.7
2022-11-12T00:03:50.156Z,18.7
2022-11-12T00:04:52.477Z,18.6
2022-11-12T00:05:55.312Z,18.7
2022-11-12T00:06:57.657Z,18.7
2022-11-12T00:08:00.342Z,18.7
2022-11-12T00:09:02.532Z,18.7
2022-11-12T00:10:04.902Z,18.7
2022-11-12T00:11:07.385Z,18.6
2022-11-12T00:12:09.299Z,18.7
2022-11-12T00:13:11.774Z,18.7
2022-11-12T00:14:13.677Z,18.8
2022-11-12T00:15:15.879Z,18.8
2022-11-12T00:16:18.345Z,18.9
2022-11-12T00:17:20.816Z,18.7
2022-11-12T00:18:23.636Z,18.8
2022-11-12T00:19:27.061Z,18.8
2022-11-12T00:20:29.651Z,18.7
2022-11-12T00:21:32.493Z,18.8
2022-11-12T00:22:34.704Z,19
2022-11-12T00:23:37.175Z,18.8
2022-11-12T00:24:39.106Z,18.8
2022-11-12T00:25:41.410Z,18.7
2022-11-12T00:26:43.616Z,18.9
2022-11-12T00:27:46.086Z,18.7
2022-11-12T00:28:48.289Z,18.8
2022-11-12T00:29:50.482Z,18.8
2022-11-12T00:30:52.114Z,18.9
2022-11-12T00:31:54.585Z,18.7
2022-11-12T00:32:56.785Z,18.7
2022-11-12T00:33:59.256Z,18.9
2022-11-12T00:35:03.320Z,18.8
2022-11-12T00:36:06.588Z,18.8
2022-11-12T00:37:09.117Z,19
2022-11-12T00:38:11.517Z,19
2022-11-12T00:39:13.692Z,18.9
2022-11-12T00:40:15.899Z,18.8
2022-11-12T00:41:17.923Z,18.9
2022-11-12T00:42:20.403Z,18.8
2022-11-12T00:43:22.023Z,18.9
2022-11-12T00:44:24.497Z,19
2022-11-12T00:45:27.242Z,18.8
2022-11-12T00:46:29.721Z,18.9
2022-11-12T00:47:31.896Z,18.9
2022-11-12T00:48:34.365Z,18.9
2022-11-12T00:49:36.557Z,18.9
2022-11-12T00:50:39.034Z,18.9
2022-11-12T00:51:41.343Z,18.9
2022-11-12T00:52:44.173Z,19
2022-11-12T00:53:46.341Z,18.7
2022-11-12T00:54:48.537Z,18.9
2022-11-12T00:55:50.440Z,19
2022-11-12T00:56:52.732Z,18.9
2022-11-12T00:57:55.211Z,18.9
2022-11-12T00:58:57.694Z,18.9
2022-11-12T01:00:00.185Z,19
2022-11-12T01:01:02.549Z,19
2022-11-12T01:02:05.144Z,18.9
2022-11-12T01:03:07.056Z,18.9
2022-11-12T01:04:09.026Z,19
2022-11-12T01:05:11.791Z,19
2022-11-12T01:06:14.676Z,19
2022-11-12T01:07:17.365Z,19
2022-11-12T01:08:20.383Z,18.8
2022-11-12T01:09:22.865Z,19
2022-11-12T01:10:25.359Z,19.2
2022-11-12T01:11:27.268Z,18.9
2022-11-12T01:12:29.842Z,19.1
2022-11-12T01:13:31.756Z,19
2022-11-12T01:14:33.959Z,19.1
2022-11-12T01:15:35.876Z,19
2022-11-12T01:16:38.074Z,19.1
2022-11-12T01:17:40.544Z,19
2022-11-12T01:18:42.729Z,18.9
2022-11-12T01:19:44.935Z,19
2022-11-12T01:20:47.442Z,18.9
2022-11-12T01:21:49.917Z,19
2022-11-12T01:22:51.959Z,19
2022-11-12T01:23:54.775Z,18.8
2022-11-12T01:24:56.976Z,19
2022-11-12T01:25:58.886Z,19
2022-11-12T01:27:01.364Z,19
2022-11-12T01:28:03.685Z,19
2022-11-12T01:29:06.162Z,19
2022-11-12T01:30:08.350Z,19.2
2022-11-12T01:31:10.016Z,18.9
2022-11-12T01:32:12.486Z,19.2
2022-11-12T01:33:14.682Z,19.1
2022-11-12T01:34:16.855Z,19
2022-11-12T01:35:19.053Z,19.1
2022-11-12T01:36:21.528Z,19
2022-11-12T01:37:23.717Z,19.1
2022-11-12T01:38:26.992Z,19.1
2022-11-12T01:39:31.109Z,19.1
2022-11-12T01:40:33.307Z,18.9
2022-11-12T01:41:35.488Z,18.9
2022-11-12T01:42:37.956Z,19
2022-11-12T01:43:39.761Z,19
2022-11-12T01:44:42.249Z,19
2022-11-12T01:45:44.432Z,19.1
2022-11-12T01:46:46.896Z,19.1
2022-11-12T01:47:49.378Z,19.1
2022-11-12T01:48:51.857Z,19.1
2022-11-12T01:50:59.318Z,19
2022-11-12T01:52:01.512Z,19.2
2022-11-12T01:53:03.404Z,19.3
2022-11-12T01:54:06.007Z,19.2
2022-11-12T01:55:08.832Z,19.1
2022-11-12T01:56:11.021Z,19.2
2022-11-12T01:57:13.478Z,19.2
2022-11-12T01:58:15.655Z,19.2
2022-11-12T01:59:17.707Z,19.1
2022-11-12T02:00:19.908Z,19.2
2022-11-12T02:01:22.314Z,19.3
2022-11-12T02:02:24.699Z,19.1
2022-11-12T02:03:26.613Z,19.3
2022-11-12T02:04:29.144Z,19.2
2022-11-12T02:05:31.605Z,19.2
2022-11-12T02:06:34.253Z,19.1
2022-11-12T02:07:36.700Z,19.1
2022-11-12T02:08:38.335Z,19.2
2022-11-12T02:09:40.659Z,19.2
2022-11-12T02:10:43.488Z,19.3
2022-11-12T02:11:45.956Z,19.4
2022-11-12T02:12:48.429Z,19.4
2022-11-12T02:13:50.913Z,19.2
2022-11-12T02:14:53.226Z,19.2
2022-11-12T02:15:55.695Z,19.3
2022-11-12T02:16:57.894Z,19.4
2022-11-12T02:17:59.805Z,19.1
2022-11-12T02:19:02.026Z,19.2
2022-11-12T02:20:04.236Z,19.2
2022-11-12T02:21:06.717Z,19.3
2022-11-12T02:22:08.919Z,19.2
2022-11-12T02:23:11.132Z,19.3
2022-11-12T02:24:13.326Z,19.2
2022-11-12T02:25:15.648Z,19.4
2022-11-12T02:26:18.449Z,19.4
2022-11-12T02:27:20.354Z,19.3
2022-11-12T02:28:22.725Z,19.2
2022-11-12T02:29:26.270Z,19.4
2022-11-12T02:30:28.609Z,19.3
2022-11-12T02:31:31.077Z,19.4
2022-11-12T02:32:32.716Z,19.2
2022-11-12T02:33:35.057Z,19.2
2022-11-12T02:34:36.984Z,19.3
2022-11-12T02:35:39.463Z,19.3
2022-11-12T02:36:41.389Z,19.4
2022-11-12T02:37:43.306Z,19.2
2022-11-12T02:38:45.216Z,19.3
2022-11-12T02:39:47.581Z,19.2
2022-11-12T02:40:49.958Z,19.3
2022-11-12T02:41:52.524Z,19.3
2022-11-12T02:42:54.832Z,19.4
2022-11-12T02:43:56.738Z,19.1
2022-11-12T02:44:59.215Z,19.5
2022-11-12T02:46:01.260Z,19.2
2022-11-12T02:47:03.739Z,19.3
2022-11-12T02:48:05.655Z,19.2
2022-11-12T02:49:07.859Z,19.3
2022-11-12T02:50:10.322Z,19.1
2022-11-12T02:51:12.795Z,19.3
2022-11-12T02:52:15.024Z,19.4
2022-11-12T02:53:16.673Z,19.3
2022-11-12T02:54:18.590Z,19.4
2022-11-12T02:55:21.062Z,19.3
2022-11-12T02:56:23.376Z,19.2
2022-11-12T02:57:25.903Z,19.3
2022-11-12T02:58:28.567Z,19.1
2022-11-12T02:59:31.083Z,19.4
2022-11-12T03:00:33.007Z,19.2
2022-11-12T03:01:35.319Z,19.2
2022-11-12T03:02:37.219Z,19.3
2022-11-12T03:03:39.425Z,19.6
2022-11-12T03:05:46.883Z,19.3
2022-11-12T03:06:49.471Z,19.4
2022-11-12T03:07:51.560Z,19.2
2022-11-12T03:08:54.043Z,19.2
2022-11-12T03:09:56.517Z,19.2
2022-11-12T03:10:58.697Z,19.3
2022-11-12T03:12:01.013Z,19.2
2022-11-12T03:13:03.825Z,19.3
2022-11-12T03:14:06.001Z,19.3
2022-11-12T03:15:08.210Z,19.3
2022-11-12T03:16:10.407Z,19.3
2022-11-12T03:17:12.706Z,19.5
2022-11-12T03:18:14.891Z,19.3
2022-11-12T03:19:17.093Z,19.2
2022-11-12T03:20:19.271Z,19.5
2022-11-12T03:21:21.494Z,19.2
2022-11-12T03:22:23.958Z,19.5
2022-11-12T03:23:26.433Z,19.4
2022-11-12T03:24:28.904Z,19.4
2022-11-12T03:25:31.403Z,19.2
2022-11-12T03:27:38.992Z,19.3
2022-11-12T03:28:41.533Z,19.4
2022-11-12T03:29:44.008Z,19.2
2022-11-12T03:30:46.214Z,19.4
2022-11-12T03:31:48.680Z,19.3
2022-11-12T03:32:51.261Z,19.5
2022-11-12T03:33:53.729Z,19.3
2022-11-12T03:34:56.385Z,19.5
2022-11-12T03:35:58.296Z,19.4
2022-11-12T03:37:00.236Z,19.4
2022-11-12T03:38:02.424Z,19.3
2022-11-12T03:39:04.632Z,19.4
2022-11-12T03:40:07.100Z,19.5
2022-11-12T03:41:09.571Z,19.4
2022-11-12T03:42:12.045Z,19.3
2022-11-12T03:43:13.793Z,19.4
2022-11-12T03:44:16.606Z,19.3
2022-11-12T03:45:19.073Z,19.2
2022-11-12T03:46:21.280Z,19.4
2022-11-12T03:47:23.749Z,19.3
2022-11-12T03:48:27.093Z,19.4
2022-11-12T03:49:30.697Z,19.3
2022-11-12T03:50:32.897Z,19.6
2022-11-12T03:51:35.096Z,19.3
2022-11-12T03:52:37.288Z,19.5
2022-11-12T03:53:39.191Z,19.2
2022-11-12T03:54:41.649Z,19.3
2022-11-12T03:55:43.833Z,19.4
2022-11-12T03:56:45.744Z,19.6
2022-11-12T03:57:47.398Z,19.6
2022-11-12T03:58:50.000Z,19.3
2022-11-12T03:59:52.827Z,19.6
2022-11-12T04:00:54.977Z,19.3
2022-11-12T04:01:57.759Z,19.3
2022-11-12T04:03:00.234Z,19.4
2022-11-12T04:04:02.550Z,19.2
2022-11-12T04:05:05.033Z,19.3
2022-11-12T04:06:07.506Z,19.4
2022-11-12T04:07:10.164Z,19.4
2022-11-12T04:08:12.568Z,19.3
2022-11-12T04:09:15.443Z,19.3
2022-11-12T04:10:17.357Z,19.2
2022-11-12T04:11:19.551Z,19.1
2022-11-12T04:12:21.466Z,19.4
2022-11-12T04:13:23.946Z,19.1
2022-11-12T04:14:26.251Z,19.1
2022-11-12T04:15:29.043Z,19.2
2022-11-12T04:16:30.690Z,19.2
2022-11-12T04:17:32.925Z,19.2
2022-11-12T04:18:35.403Z,19.1
2022-11-12T04:19:37.982Z,19
2022-11-12T04:20:40.178Z,19.1
2022-11-12T04:21:42.661Z,19.2
2022-11-12T04:22:44.850Z,19.1
2022-11-12T04:23:47.067Z,19.2
2022-11-12T04:24:49.530Z,19.1
2022-11-12T04:25:51.736Z,19.2
2022-11-12T04:26:54.203Z,19.1
2022-11-12T04:27:56.677Z,19
2022-11-12T04:28:58.857Z,19.1
2022-11-12T04:30:01.462Z,19.1
2022-11-12T04:31:04.286Z,19.1
2022-11-12T04:32:06.756Z,19
2022-11-12T04:33:08.967Z,19.2
2022-11-12T04:34:11.454Z,19
2022-11-12T04:35:14.175Z,19.1
2022-11-12T04:36:16.117Z,19
2022-11-12T04:38:23.500Z,19
2022-11-12T04:39:27.259Z,19
2022-11-12T04:40:29.737Z,18.9
2022-11-12T04:41:31.651Z,19
2022-11-12T04:42:34.123Z,19
2022-11-12T04:43:36.604Z,19.1
2022-11-12T04:44:38.803Z,19.1
2022-11-12T04:45:41.123Z,19
2022-11-12T04:46:43.659Z,19
2022-11-12T04:47:45.869Z,19
2022-11-12T04:48:48.061Z,18.8
2022-11-12T04:49:50.534Z,19
2022-11-12T04:50:52.840Z,19
2022-11-12T04:51:55.315Z,19
2022-11-12T04:52:57.529Z,18.9
2022-11-12T04:54:00.014Z,19
2022-11-12T04:55:01.922Z,18.8
2022-11-12T04:56:04.395Z,19
2022-11-12T04:57:06.316Z,19.1
2022-11-12T04:58:08.794Z,18.9
2022-11-12T04:59:10.417Z,18.9
2022-11-12T05:00:12.619Z,19.1
2022-11-12T05:01:15.398Z,18.9
2022-11-12T05:02:18.475Z,18.9
2022-11-12T05:03:20.953Z,18.9
2022-11-12T05:04:23.425Z,19.1
2022-11-12T05:06:31.000Z,19.1
2022-11-12T05:07:33.180Z,18.9
2022-11-12T05:08:35.385Z,19
2022-11-12T05:09:37.582Z,19
2022-11-12T05:10:40.046Z,19
2022-11-12T05:11:41.970Z,19
2022-11-12T05:12:44.450Z,19.1
2022-11-12T05:13:46.641Z,18.9
2022-11-12T05:14:48.825Z,19
2022-11-12T05:15:51.336Z,18.9
2022-11-12T05:16:53.934Z,18.9
2022-11-12T05:17:56.756Z,18.9
2022-11-12T05:18:59.212Z,19.1
2022-11-12T05:20:01.703Z,18.9
2022-11-12T05:21:03.613Z,18.9
2022-11-12T05:22:06.238Z,19
2022-11-12T05:23:12.414Z,18.9
2022-11-12T05:25:19.590Z,18.8
2022-11-12T05:26:21.790Z,19
2022-11-12T05:27:23.699Z,19
2022-11-12T05:28:26.572Z,18.9
2022-11-12T05:29:30.143Z,18.8
2022-11-12T05:30:32.613Z,19
2022-11-12T05:31:34.505Z,18.8
2022-11-12T05:32:36.824Z,18.9
2022-11-12T05:33:39.640Z,18.9
2022-11-12T05:34:41.842Z,18.9
2022-11-12T05:35:44.007Z,18.9
2022-11-12T05:36:46.481Z,19
2022-11-12T05:37:49.083Z,18.9
2022-11-12T05:38:51.005Z,19
2022-11-12T05:39:52.648Z,18.9
2022-11-12T05:40:55.159Z,19
2022-11-12T05:43:02.058Z,18.9
2022-11-12T05:44:03.969Z,19
2022-11-12T05:45:06.435Z,18.7
2022-11-12T05:46:08.915Z,18.8
2022-11-12T05:47:10.546Z,18.9
2022-11-12T05:48:13.142Z,18.8
2022-11-12T05:49:20.297Z,18.8
2022-11-12T05:50:22.212Z,18.9
2022-11-12T05:51:24.403Z,18.9
2022-11-12T05:52:26.598Z,18.9
2022-11-12T05:53:29.176Z,18.7
2022-11-12T05:54:31.375Z,18.8
2022-11-12T05:56:38.861Z,18.9
2022-11-12T05:57:41.087Z,18.9
2022-11-12T05:58:43.272Z,18.8
2022-11-12T05:59:45.753Z,18.9
2022-11-12T06:00:48.213Z,18.9
2022-11-12T06:01:50.418Z,18.9
2022-11-12T06:02:52.390Z,18.8
2022-11-12T06:03:54.943Z,18.8
2022-11-12T06:04:58.323Z,18.8
2022-11-12T06:06:00.799Z,18.9
2022-11-12T06:07:02.651Z,18.8
2022-11-12T06:08:05.474Z,18.9
2022-11-12T06:09:07.794Z,18.9
2022-11-12T06:10:09.770Z,18.8
2022-11-12T06:11:18.204Z,18.8
2022-11-12T06:12:19.553Z,18.9
2022-11-12T06:13:22.020Z,18.8
2022-11-12T06:14:24.208Z,18.9
2022-11-12T06:15:26.139Z,18.9
2022-11-12T06:16:28.340Z,18.8
2022-11-12T06:17:30.529Z,18.8
2022-11-12T06:18:33.008Z,18.8
2022-11-12T06:19:35.312Z,18.8
2022-11-12T06:20:38.129Z,18.8
2022-11-12T06:21:40.501Z,18.7
2022-11-12T06:22:43.549Z,18.9
2022-11-12T06:23:46.015Z,18.7
2022-11-12T06:24:48.627Z,18.9
2022-11-12T06:25:50.249Z,18.9
2022-11-12T06:26:52.432Z,18.8
2022-11-12T06:27:54.636Z,18.9
2022-11-12T06:28:57.109Z,18.8
2022-11-12T06:29:59.005Z,18.9
2022-11-12T06:31:01.209Z,18.9
2022-11-12T06:32:03.683Z,18.8
2022-11-12T06:33:05.590Z,18.9
2022-11-12T06:34:08.062Z,18.9
2022-11-12T06:35:10.362Z,18.8
2022-11-12T06:36:13.170Z,18.8
2022-11-12T06:37:15.117Z,18.8
2022-11-12T06:38:17.588Z,18.9
2022-11-12T06:39:19.792Z,18.8
2022-11-12T06:40:21.809Z,18.8
2022-11-12T06:41:24.286Z,18.9
2022-11-12T06:42:26.549Z,18.8
2022-11-12T06:43:28.446Z,18.7
2022-11-12T06:44:30.929Z,18.8
2022-11-12T06:45:33.128Z,18.8
2022-11-12T06:46:35.592Z,18.8
2022-11-12T06:47:38.068Z,18.7
2022-11-12T06:48:40.256Z,18.8
2022-11-12T06:49:42.448Z,18.9
2022-11-12T06:50:44.759Z,18.8
2022-11-12T06:51:47.575Z,18.8
2022-11-12T06:52:49.781Z,18.8
2022-11-12T06:53:51.989Z,18.7
2022-11-12T06:54:54.196Z,18.9
2022-11-12T06:55:56.517Z,18.8
2022-11-12T06:56:58.180Z,18.7
2022-11-12T06:58:00.374Z,18.8
2022-11-12T06:59:02.848Z,18.7
2022-11-12T07:00:05.089Z,18.8
2022-11-12T07:02:12.597Z,18.8
2022-11-12T07:03:14.738Z,18.8
2022-11-12T07:04:16.386Z,18.7
2022-11-12T07:05:18.571Z,18.7
2022-11-12T07:06:21.260Z,18.9
2022-11-12T07:07:24.155Z,18.8
2022-11-12T07:08:27.363Z,18.7
2022-11-12T07:09:31.436Z,18.7
2022-11-12T07:10:33.601Z,18.8
2022-11-12T07:11:36.201Z,18.8
2022-11-12T07:12:38.796Z,18.8
2022-11-12T07:13:41.325Z,18.9
2022-11-12T07:14:43.806Z,18.7
2022-11-12T07:15:46.283Z,18.9
2022-11-12T07:16:47.929Z,18.8
2022-11-12T07:17:50.404Z,18.8
2022-11-12T07:18:52.615Z,18.8
2022-11-12T07:21:00.085Z,18.9
2022-11-12T07:22:02.477Z,18.8
2022-11-12T07:23:05.017Z,18.6
2022-11-12T07:24:06.962Z,18.7
2022-11-12T07:25:09.173Z,18.7
2022-11-12T07:26:11.650Z,18.8
2022-11-12T07:27:14.250Z,18.8
2022-11-12T07:28:16.727Z,18.7
2022-11-12T07:30:23.912Z,18.8
2022-11-12T07:31:26.410Z,18.7
2022-11-12T07:32:28.601Z,18.7
2022-11-12T07:33:30.250Z,18.8
2022-11-12T07:34:32.728Z,18.7
2022-11-12T07:35:35.216Z,18.8
2022-11-12T07:36:37.436Z,18.8
2022-11-12T07:37:39.765Z,18.8
2022-11-12T07:38:42.564Z,18.7
2022-11-12T07:39:44.750Z,18.7
2022-11-12T07:40:46.952Z,18.7
2022-11-12T07:41:49.430Z,18.8
2022-11-12T07:42:51.744Z,18.7
2022-11-12T07:43:53.944Z,18.7
2022-11-12T07:44:56.162Z,18.7
2022-11-12T07:45:58.662Z,18.8
2022-11-12T07:47:00.853Z,18.8
2022-11-12T07:48:03.063Z,18.6
2022-11-12T07:49:05.289Z,18.8
2022-11-12T07:50:07.211Z,18.7
2022-11-12T07:51:09.403Z,18.7
2022-11-12T07:52:11.310Z,18.6
2022-11-12T07:53:13.609Z,18.8
2022-11-12T07:54:16.427Z,18.7
2022-11-12T07:55:18.901Z,18.7
2022-11-12T07:56:21.102Z,18.7
2022-11-12T07:57:23.585Z,18.8
2022-11-12T07:58:26.817Z,18.7
2022-11-12T07:59:30.484Z,18.7
2022-11-12T08:00:32.969Z,18.7
2022-11-12T08:01:35.340Z,18.7
2022-11-12T08:02:37.847Z,18.8
2022-11-12T08:03:40.039Z,18.8
2022-11-12T08:04:42.301Z,18.7
2022-11-12T08:05:44.509Z,18.6
2022-11-12T08:06:46.709Z,18.8
2022-11-12T08:07:49.815Z,18.8
2022-11-12T08:08:52.398Z,18.8
2022-11-12T08:09:54.938Z,18.8
2022-11-12T08:10:56.897Z,18.7
2022-11-12T08:11:58.832Z,18.8
2022-11-12T08:13:01.044Z,18.7
2022-11-12T08:14:03.325Z,18.7
2022-11-12T08:15:04.969Z,18.6
2022-11-12T08:16:07.438Z,18.7
2022-11-12T08:17:09.637Z,18.6
2022-11-12T08:18:12.110Z,18.9
2022-11-12T08:19:14.585Z,18.7
2022-11-12T08:20:17.338Z,18.8
2022-11-12T08:21:19.811Z,18.7
2022-11-12T08:22:22.012Z,18.8
2022-11-12T08:23:23.934Z,18.7
2022-11-12T08:24:26.548Z,18.7
2022-11-12T08:25:29.374Z,18.7
2022-11-12T08:26:31.596Z,18.6
2022-11-12T08:27:33.829Z,18.6
2022-11-12T08:28:36.029Z,18.7
2022-11-12T08:29:38.344Z,18.7
2022-11-12T08:30:40.278Z,18.7
2022-11-12T08:31:42.743Z,18.6
2022-11-12T08:32:45.132Z,18.7
2022-11-12T08:33:47.914Z,18.7
2022-11-12T08:34:50.112Z,18.7
2022-11-12T08:35:52.322Z,18.6
2022-11-12T08:36:54.528Z,18.7
2022-11-12T08:37:56.718Z,18.7
2022-11-12T08:38:58.638Z,18.6
2022-11-12T08:40:01.454Z,18.6
2022-11-12T08:41:04.264Z,18.7
2022-11-12T08:42:06.734Z,18.6
2022-11-12T08:43:08.362Z,18.6
2022-11-12T08:44:10.836Z,18.7
2022-11-12T08:45:13.425Z,18.7
2022-11-12T08:46:15.630Z,18.6
2022-11-12T08:47:17.825Z,18.7
2022-11-12T08:48:19.466Z,18.6
2022-11-12T08:49:21.684Z,18.7
2022-11-12T08:50:24.153Z,18.7
2022-11-12T08:51:26.514Z,18.7
2022-11-12T08:52:29.008Z,18.5
2022-11-12T08:53:31.261Z,18.7
2022-11-12T08:54:33.761Z,18.6
2022-11-12T08:55:36.116Z,18.7
2022-11-12T08:56:38.679Z,18.7
2022-11-12T08:57:40.624Z,18.7
2022-11-12T08:58:42.851Z,18.6
2022-11-12T08:59:45.361Z,18.6
2022-11-12T09:00:47.440Z,18.6
2022-11-12T09:01:49.867Z,18.7
2022-11-12T09:02:52.324Z,18.7
2022-11-12T09:03:54.805Z,18.6
2022-11-12T09:04:56.733Z,18.6
2022-11-12T09:05:59.208Z,18.7
2022-11-12T09:07:01.823Z,18.5
2022-11-12T09:08:04.118Z,18.6
2022-11-12T09:09:06.649Z,18.6
2022-11-12T09:10:08.858Z,18.8
2022-11-12T09:11:11.184Z,18.7
2022-11-12T09:13:18.976Z,18.7
2022-11-12T09:14:21.229Z,18.6
2022-11-12T09:16:28.748Z,18.6
2022-11-12T09:17:30.661Z,18.7
2022-11-12T09:18:33.125Z,18.7
2022-11-12T09:20:40.589Z,18.6
2022-11-12T09:21:43.068Z,18.6
2022-11-12T09:22:45.247Z,18.7
2022-11-12T09:23:47.448Z,18.6
2022-11-12T09:24:49.639Z,18.7
2022-11-12T09:25:51.847Z,18.6
2022-11-12T09:26:54.437Z,18.7
2022-11-12T09:27:57.298Z,18.7
2022-11-12T09:28:59.516Z,18.7
2022-11-12T09:30:01.736Z,18.7
2022-11-12T09:31:03.657Z,18.6
2022-11-12T09:32:06.255Z,18.6
2022-11-12T09:33:08.476Z,18.6
2022-11-12T09:34:10.963Z,18.6
2022-11-12T09:35:13.431Z,18.6
2022-11-12T09:36:15.345Z,18.5
2022-11-12T09:37:17.874Z,18.7
2022-11-12T09:38:20.068Z,18.7
2022-11-12T09:39:21.982Z,18.7
2022-11-12T09:40:23.647Z,18.7
2022-11-12T09:41:25.571Z,18.6
2022-11-12T09:42:28.175Z,18.5
2022-11-12T09:43:30.990Z,18.6
2022-11-12T09:45:38.169Z,18.6
2022-11-12T09:46:40.653Z,18.6
2022-11-12T09:47:43.254Z,18.7
2022-11-12T09:48:45.187Z,18.7
2022-11-12T09:49:47.371Z,18.6
2022-11-12T09:50:49.589Z,18.6
2022-11-12T09:51:51.523Z,18.6
2022-11-12T09:52:54.001Z,18.7
2022-11-12T09:53:56.483Z,18.7
2022-11-12T09:54:58.961Z,18.6
2022-11-12T09:56:00.863Z,18.6
2022-11-12T09:57:03.086Z,18.6
2022-11-12T09:58:05.394Z,18.6
2022-11-12T09:59:08.226Z,18.7
2022-11-12T10:00:10.702Z,18.6
2022-11-12T10:01:12.444Z,18.8
2022-11-12T10:02:14.856Z,18.6
2022-11-12T10:03:17.177Z,18.6
2022-11-12T10:04:19.377Z,18.5
2022-11-12T10:05:21.590Z,18.6
2022-11-12T10:06:23.774Z,18.7
2022-11-12T10:07:26.319Z,18.7
2022-11-12T10:08:28.767Z,18.7
2022-11-12T10:09:31.863Z,18.6
2022-11-12T10:10:33.764Z,18.6
2022-11-12T10:11:35.947Z,18.7
2022-11-12T10:12:37.892Z,18.6
2022-11-12T10:13:40.221Z,18.5
2022-11-12T10:14:43.042Z,18.6
2022-11-12T10:15:45.249Z,18.6
2022-11-12T10:16:47.456Z,18.6
2022-11-12T10:17:49.931Z,18.7
2022-11-12T10:18:52.511Z,18.7
2022-11-12T10:19:54.717Z,18.7
2022-11-12T10:20:56.929Z,18.6
2022-11-12T10:21:59.564Z,18.7
2022-11-12T10:23:01.492Z,18.6
2022-11-12T10:24:03.970Z,18.6
2022-11-12T10:25:06.200Z,18.7
2022-11-12T10:26:08.449Z,18.6
2022-11-12T10:27:10.929Z,18.7
2022-11-12T10:28:13.111Z,18.6
2022-11-12T10:29:15.432Z,18.7
2022-11-12T10:30:18.103Z,18.7
2022-11-12T10:31:20.726Z,18.6
2022-11-12T10:32:22.908Z,18.7
2022-11-12T10:33:25.392Z,18.7
2022-11-12T10:34:28.093Z,18.6
2022-11-12T10:35:30.582Z,18.5
2022-11-12T10:36:33.060Z,18.6
2022-11-12T10:37:35.535Z,18.6
2022-11-12T10:38:38.017Z,18.6
2022-11-12T10:39:40.488Z,18.6
2022-11-12T10:40:42.717Z,18.6
2022-11-12T10:41:45.204Z,18.6
2022-11-12T10:42:47.406Z,18.7
2022-11-12T10:43:49.902Z,18.6
2022-11-12T10:44:51.938Z,18.6
2022-11-12T10:45:54.771Z,18.6
2022-11-12T10:46:57.245Z,18.7
2022-11-12T10:47:59.159Z,18.6
2022-11-12T10:49:01.626Z,18.6
2022-11-12T10:50:03.414Z,18.6
2022-11-12T10:51:05.609Z,18.7
2022-11-12T10:52:08.191Z,18.6
2022-11-12T10:53:10.686Z,18.6
2022-11-12T10:54:12.892Z,18.6
2022-11-12T10:55:15.293Z,18.6
2022-11-12T10:56:17.779Z,18.6
2022-11-12T10:57:19.390Z,18.6
2022-11-12T10:58:21.320Z,18.6
2022-11-12T10:59:23.514Z,18.6
2022-11-12T11:00:25.850Z,18.6
2022-11-12T11:02:33.369Z,18.7
2022-11-12T11:03:35.571Z,18.5
2022-11-12T11:04:37.492Z,18.6
2022-11-12T11:05:40.095Z,18.7
2022-11-12T11:06:42.677Z,18.6
2022-11-12T11:07:44.587Z,18.7
2022-11-12T11:08:46.797Z,18.7
2022-11-12T11:09:48.443Z,18.6
2022-11-12T11:10:50.912Z,18.6
2022-11-12T11:11:53.131Z,18.5
2022-11-12T11:12:55.621Z,18.6
2022-11-12T11:13:58.113Z,18.6
2022-11-12T11:15:00.302Z,18.6
2022-11-12T11:16:02.900Z,18.6
2022-11-12T11:17:05.717Z,18.7
2022-11-12T11:18:07.917Z,18.7
2022-11-12T11:19:09.822Z,18.6
2022-11-12T11:20:12.396Z,18.6
2022-11-12T11:21:14.906Z,18.7
2022-11-12T11:22:17.887Z,18.6
2022-11-12T11:23:20.079Z,18.7
2022-11-12T11:24:22.561Z,18.6
2022-11-12T11:25:24.761Z,18.7
2022-11-12T11:26:27.814Z,18.6
2022-11-12T11:27:29.730Z,18.6
2022-11-12T11:28:31.653Z,18.7
2022-11-12T11:29:34.116Z,18.7
2022-11-12T11:30:36.139Z,18.6
2022-11-12T11:31:38.721Z,18.7
2022-11-12T11:32:41.548Z,18.5
2022-11-12T11:33:44.010Z,18.5
2022-11-12T11:34:45.968Z,18.6
2022-11-12T11:35:48.186Z,18.7
2022-11-12T11:36:50.490Z,18.6
2022-11-12T11:38:57.678Z,18.6
2022-11-12T11:40:00.191Z,18.7
2022-11-12T11:41:02.126Z,18.7
2022-11-12T11:42:04.615Z,18.6
2022-11-12T11:43:06.815Z,18.5
2022-11-12T11:45:14.043Z,18.6
2022-11-12T11:46:16.256Z,18.6
2022-11-12T11:47:18.859Z,18.6
2022-11-12T11:48:21.402Z,18.7
2022-11-12T11:49:23.593Z,18.6
2022-11-12T11:50:25.330Z,18.6
2022-11-12T11:51:27.802Z,18.5
2022-11-12T11:52:30.149Z,18.7
2022-11-12T11:53:32.332Z,18.7
2022-11-12T11:54:34.544Z,18.6
2022-11-12T11:55:36.740Z,18.6
2022-11-12T11:56:38.684Z,18.5
2022-11-12T11:57:40.876Z,18.7
2022-11-12T11:58:43.379Z,18.6
2022-11-12T11:59:45.611Z,18.6
2022-11-12T12:00:47.806Z,18.6
2022-11-12T12:01:49.735Z,18.6
2022-11-12T12:02:52.333Z,18.6
2022-11-12T12:03:55.223Z,18.6
2022-11-12T12:04:57.625Z,18.6
2022-11-12T12:06:00.107Z,18.7
2022-11-12T12:07:02.714Z,18.6
2022-11-12T12:08:05.249Z,18.6
2022-11-12T12:09:07.721Z,18.6
2022-11-12T12:10:10.250Z,18.6
2022-11-12T12:11:12.724Z,18.7
2022-11-12T12:12:15.209Z,18.6
2022-11-12T12:13:17.419Z,18.7
2022-11-12T12:14:19.895Z,18.7
2022-11-12T12:15:22.103Z,18.6
2022-11-12T12:16:24.579Z,18.6
2022-11-12T12:18:31.892Z,18.6
2022-11-12T12:19:34.740Z,18.6
2022-11-12T12:20:36.942Z,18.7
2022-11-12T12:21:39.122Z,18.6
2022-11-12T12:22:41.583Z,18.5
2022-11-12T12:23:44.168Z,18.6
2022-11-12T12:24:46.350Z,18.5
2022-11-12T12:25:48.587Z,18.6
2022-11-12T12:26:50.776Z,18.6
2022-11-12T12:27:52.982Z,18.6
2022-11-12T12:28:54.912Z,18.7
2022-11-12T12:29:57.106Z,18.6
2022-11-12T12:30:59.302Z,18.6
2022-11-12T12:32:01.227Z,18.6
2022-11-12T12:33:03.691Z,18.6
2022-11-12T12:34:06.295Z,18.5
2022-11-12T12:35:09.125Z,18.7
2022-11-12T12:36:11.331Z,18.7
2022-11-12T12:37:13.535Z,18.7
2022-11-12T12:38:16.012Z,18.6
2022-11-12T12:39:18.624Z,18.6
2022-11-12T12:40:20.553Z,18.6
2022-11-12T12:41:23.023Z,18.5
2022-11-12T12:42:25.518Z,18.6
2022-11-12T12:43:27.717Z,18.5
2022-11-12T12:44:29.919Z,18.6
2022-11-12T12:46:37.109Z,18.7
2022-11-12T12:47:39.590Z,18.5
2022-11-12T12:48:41.496Z,18.6
2022-11-12T12:49:44.107Z,18.5
2022-11-12T12:50:46.916Z,18.5
2022-11-12T12:52:53.808Z,18.5
2022-11-12T12:53:56.290Z,18.6
2022-11-12T12:54:58.885Z,18.5
2022-11-12T12:56:01.104Z,18.6
2022-11-12T12:57:03.711Z,18.7
2022-11-12T12:58:05.904Z,18.5
2022-11-12T12:59:08.371Z,18.6
2022-11-12T13:01:15.955Z,18.5
2022-11-12T13:02:18.760Z,18.5
2022-11-12T13:03:21.240Z,18.5
2022-11-12T13:04:23.732Z,18.6
2022-11-12T13:05:26.037Z,18.6
2022-11-12T13:06:28.605Z,18.6
2022-11-12T13:07:30.861Z,18.6
2022-11-12T13:08:33.231Z,18.6
2022-11-12T13:09:35.712Z,18.7
2022-11-12T13:10:38.095Z,18.5
2022-11-12T13:11:40.617Z,18.6
2022-11-12T13:12:43.146Z,18.7
2022-11-12T13:13:44.784Z,18.6
2022-11-12T13:14:46.720Z,18.6
2022-11-12T13:15:49.028Z,18.6
2022-11-12T13:16:51.578Z,18.6
2022-11-12T13:17:53.531Z,18.6
2022-11-12T13:18:55.745Z,18.6
2022-11-12T13:19:57.965Z,18.7
2022-11-12T13:21:00.295Z,18.6
2022-11-12T13:22:03.247Z,18.6
2022-11-12T13:23:05.739Z,18.6
2022-11-12T13:24:08.659Z,18.6
2022-11-12T13:25:10.955Z,18.7
2022-11-12T13:26:13.553Z,18.6
2022-11-12T13:27:15.761Z,18.5
2022-11-12T13:28:18.231Z,18.7
2022-11-12T13:29:20.419Z,18.6
2022-11-12T13:30:22.625Z,18.6
2022-11-12T13:31:25.121Z,18.4
2022-11-12T13:32:27.296Z,18.7
2022-11-12T13:33:29.514Z,18.6
2022-11-12T13:34:31.423Z,18.5
2022-11-12T13:35:33.632Z,18.6
2022-11-12T13:36:35.511Z,18.6
2022-11-12T13:37:38.337Z,18.6
2022-11-12T13:38:40.541Z,18.5
2022-11-12T13:39:42.187Z,18.5
2022-11-12T13:40:44.686Z,18.6
2022-11-12T13:41:47.279Z,18.7
2022-11-12T13:42:49.754Z,18.5
2022-11-12T13:43:51.682Z,18.6
2022-11-12T13:45:59.180Z,18.5
2022-11-12T13:47:01.414Z,18.6
2022-11-12T13:48:03.890Z,18.6
2022-11-12T13:49:06.365Z,18.6
2022-11-12T13:50:08.289Z,18.6
2022-11-12T13:51:10.498Z,18.5
2022-11-12T13:52:13.094Z,18.4
2022-11-12T13:53:15.921Z,18.6
2022-11-12T13:54:18.389Z,18.6
2022-11-12T13:55:20.870Z,18.5
2022-11-12T13:56:23.350Z,18.6
2022-11-12T13:57:25.951Z,18.5
2022-11-12T13:58:28.907Z,18.6
2022-11-12T13:59:31.615Z,18.6
2022-11-12T14:00:33.379Z,18.6
2022-11-12T14:01:35.873Z,18.6
2022-11-12T14:03:42.817Z,18.6
2022-11-12T14:04:45.020Z,18.6
2022-11-12T14:05:47.236Z,18.6
2022-11-12T14:06:49.244Z,18.6
2022-11-12T14:07:52.168Z,18.5
2022-11-12T14:08:55.016Z,18.5
2022-11-12T14:09:57.233Z,18.6
2022-11-12T14:10:59.733Z,18.6
2022-11-12T14:12:01.922Z,18.7
2022-11-12T14:13:04.525Z,18.5
2022-11-12T14:14:07.070Z,18.5
2022-11-12T14:15:09.269Z,18.5
2022-11-12T14:16:11.460Z,18.5
2022-11-12T14:18:18.930Z,18.5
2022-11-12T14:19:21.115Z,18.5
2022-11-12T14:20:23.597Z,18.5
2022-11-12T14:21:26.072Z,18.5